createdAt,value
2022-12-15T00:02:18.440Z,100350.77
2022-12-15T00:05:03.779Z,100333.32
2022-12-15T00:07:49.018Z,100328.94
2022-12-15T00:10:34.128Z,100320.84
2022-12-15T00:13:19.526Z,100319.69
2022-12-15T00:16:06.164Z,100320.39
2022-12-15T00:18:51.568Z,100317.77
2022-12-15T00:21:36.976Z,100314.86
2022-12-15T00:24:22.281Z,100318.31
2022-12-15T00:27:07.687Z,100308.61
2022-12-15T00:29:52.962Z,100305.11
2022-12-15T00:36:01.894Z,100285.41
2022-12-15T00:38:47.597Z,100278.89
2022-12-15T00:41:15.927Z,100280.17
2022-12-15T00:43:42.644Z,100277.54
2022-12-15T00:46:28.280Z,100280.17
2022-12-15T00:48:55.099Z,100283.46
2022-12-15T00:51:21.879Z,100276.36
2022-12-15T00:54:06.997Z,100265.70
2022-12-15T00:56:52.207Z,100264.34
2022-12-15T00:59:37.388Z,100255.05
2022-12-15T01:02:22.813Z,100254.29
2022-12-15T01:05:08.114Z,100248.82
2022-12-15T01:07:53.091Z,100242.77
2022-12-15T01:10:38.563Z,100237.45
2022-12-15T01:13:23.991Z,100243.83
2022-12-15T01:16:09.597Z,100242.45
2022-12-15T01:18:55.185Z,100247.45
2022-12-15T01:21:24.680Z,100246.88
2022-12-15T01:23:52.035Z,100243.74
2022-12-15T01:26:18.784Z,100244.95
2022-12-15T01:28:45.457Z,100245.54
2022-12-15T01:31:12.450Z,100239.11
2022-12-15T01:33:39.805Z,100233.00
2022-12-15T01:36:07.005Z,100233.71
2022-12-15T01:38:33.628Z,100235.33
2022-12-15T01:41:07.616Z,100232.73
2022-12-15T01:43:36.483Z,100232.35
2022-12-15T01:46:09.494Z,100219.52
2022-12-15T01:48:55.230Z,100218.86
2022-12-15T01:51:34.113Z,100213.57
2022-12-15T01:54:06.893Z,100203.28
2022-12-15T01:56:37.881Z,100200.17
2022-12-15T01:59:05.116Z,100199.43
2022-12-15T02:01:31.823Z,100196.41
2022-12-15T02:03:58.539Z,100178.55
2022-12-15T02:06:25.637Z,100172.60
2022-12-15T02:08:52.873Z,100162.10
2022-12-15T02:11:39.352Z,100158.14
2022-12-15T02:14:07.552Z,100162.26
2022-12-15T02:16:39.761Z,100158.58
2022-12-15T02:19:38.880Z,100153.61
2022-12-15T02:22:14.536Z,100160.95
2022-12-15T02:24:52.292Z,100165.21
2022-12-15T02:27:30.460Z,100168.96
2022-12-15T02:30:20.590Z,100169.55
2022-12-15T07:54:38.004Z,99906.17
2022-12-15T07:57:07.435Z,99905.98
2022-12-15T07:59:34.439Z,99901.55
2022-12-15T08:02:01.707Z,99906.64
2022-12-15T08:04:29.709Z,99904.39
2022-12-15T08:06:57.107Z,99902.31
2022-12-15T08:09:23.871Z,99901.02
2022-12-15T08:11:50.985Z,99902.94
2022-12-15T08:14:18.745Z,99905.07
2022-12-15T08:16:45.815Z,99909.96
2022-12-15T08:19:13.557Z,99911.31
2022-12-15T08:21:40.785Z,99910.99
2022-12-15T08:24:08.352Z,99917.77
2022-12-15T08:26:35.225Z,99916.36
2022-12-15T08:29:31.719Z,99912.66
2022-12-15T08:31:50.762Z,99908.98
2022-12-15T08:34:17.402Z,99909.21
2022-12-15T08:36:44.046Z,99901.81
2022-12-15T08:39:10.709Z,99902.34
2022-12-15T08:41:37.495Z,99903.84
2022-12-15T08:44:04.324Z,99898.89
2022-12-15T08:46:32.328Z,99898.75
2022-12-15T08:48:59.410Z,99893.66
2022-12-15T08:51:28.090Z,99894.76
2022-12-15T08:53:55.664Z,99891.48
2022-12-15T08:56:22.765Z,99895.09
2022-12-15T08:58:50.328Z,99900.00
2022-12-15T09:01:23.382Z,99902.81
2022-12-15T09:03:51.612Z,99907.30
2022-12-15T09:06:23.015Z,99908.90
2022-12-15T09:08:50.503Z,99907.50
2022-12-15T09:11:17.626Z,99911.59
2022-12-15T09:13:44.595Z,99913.25
2022-12-15T09:16:13.816Z,99913.10
2022-12-15T09:18:48.378Z,99907.10
2022-12-15T09:21:15.344Z,99907.45
2022-12-15T09:23:42.369Z,99898.92
2022-12-15T09:26:12.984Z,99898.86
2022-12-15T09:28:39.629Z,99894.80
2022-12-15T09:31:23.274Z,99899.39
2022-12-15T09:33:51.454Z,99898.37
2022-12-15T09:36:18.263Z,99895.15
2022-12-15T09:38:45.048Z,99893.66
2022-12-15T09:41:17.718Z,99891.02
2022-12-15T09:43:48.459Z,99892.88
2022-12-15T09:46:23.347Z,99894.02
2022-12-15T09:48:50.096Z,99894.45
2022-12-15T09:51:17.312Z,99889.67
2022-12-15T09:53:59.900Z,99894.45
2022-12-15T09:56:51.541Z,99891.74
2022-12-15T09:59:33.537Z,99893.17
2022-12-15T10:02:03.429Z,99890.67
2022-12-15T10:04:52.053Z,99889.59
2022-12-15T10:07:21.865Z,99888.81
2022-12-15T10:09:48.506Z,99882.25
2022-12-15T10:12:25.334Z,99884.55
2022-12-15T10:15:01.049Z,99883.67
2022-12-15T10:17:36.265Z,99884.21
2022-12-15T10:20:06.425Z,99880.64
2022-12-15T10:22:36.743Z,99879.85
2022-12-15T13:30:10.613Z,99982.48
2022-12-15T13:32:47.416Z,99987.55
2022-12-15T14:48:42.417Z,100015.48
2022-12-15T14:51:10.908Z,100021.94
2022-12-15T14:53:38.416Z,100024.40
2022-12-15T14:56:20.417Z,100028.30
2022-12-15T14:59:04.673Z,100026.53
2022-12-15T15:01:34.372Z,100025.63
2022-12-15T15:04:05.884Z,100028.06
2022-12-15T15:06:37.196Z,100030.60
2022-12-15T15:09:12.987Z,100031.91
2022-12-15T15:11:39.881Z,100042.02
2022-12-15T15:14:15.070Z,100049.45
2022-12-15T15:16:41.970Z,100048.57
2022-12-15T15:19:15.138Z,100047.47
2022-12-15T15:21:41.767Z,100044.48
2022-12-15T15:24:11.403Z,100053.83
2022-12-15T15:26:38.309Z,100055.33
2022-12-15T15:29:38.390Z,100059.43
2022-12-15T15:32:25.316Z,100063.66
2022-12-15T15:34:52.222Z,100068.58
2022-12-15T15:37:25.012Z,100070.70
2022-12-15T15:39:52.437Z,100071.52
2022-12-15T15:42:21.130Z,100065.14
2022-12-15T15:44:47.809Z,100069.68
2022-12-15T15:47:23.798Z,100070.54
2022-12-15T15:49:54.936Z,100069.26
2022-12-15T15:52:21.976Z,100067.66
2022-12-15T15:54:48.607Z,100067.77
2022-12-15T15:57:15.642Z,100070.78
2022-12-15T15:59:44.122Z,100069.46
2022-12-15T16:02:11.660Z,100068.26
2022-12-15T16:04:42.424Z,100073.42
2022-12-15T16:07:27.939Z,100074.89
2022-12-15T16:09:54.603Z,100079.65
2022-12-15T16:12:27.504Z,100075.88
2022-12-15T16:14:55.192Z,100073.02
2022-12-15T16:17:22.065Z,100077.52
2022-12-15T16:19:49.020Z,100080.50
2022-12-15T16:22:18.203Z,100082.66
2022-12-15T16:24:44.906Z,100082.42
2022-12-15T16:27:11.797Z,100085.38
2022-12-15T16:29:38.422Z,100087.83
2022-12-15T16:32:06.053Z,100087.79
2022-12-15T16:34:32.741Z,100086.48
2022-12-15T16:36:59.388Z,100092.77
2022-12-15T16:39:35.832Z,100097.54
2022-12-15T16:42:03.004Z,100100.31
2022-12-15T16:44:29.834Z,100101.59
2022-12-15T16:46:57.496Z,100103.77
2022-12-15T16:49:24.824Z,100110.27
2022-12-15T16:51:52.602Z,100107.23
2022-12-15T16:54:24.434Z,100106.48
2022-12-15T16:56:52.961Z,100115.77
2022-12-15T16:59:36.571Z,100114.09
2022-12-15T17:02:23.881Z,100118.41
2022-12-15T17:04:51.013Z,100118.81
2022-12-15T17:07:20.360Z,100121.10
2022-12-15T17:09:48.987Z,100123.90
2022-12-15T17:12:17.571Z,100120.62
2022-12-15T17:14:44.978Z,100119.67
2022-12-15T17:17:15.899Z,100120.75
2022-12-15T17:19:58.087Z,100116.50
2022-12-15T17:22:29.446Z,100114.09
2022-12-15T17:24:56.129Z,100119.88
2022-12-15T17:27:29.414Z,100117.91
2022-12-15T17:29:56.433Z,100122.95
2022-12-15T17:32:23.136Z,100130.01
2022-12-15T17:34:49.914Z,100132.65
2022-12-15T17:37:16.680Z,100138.42
2022-12-15T17:39:50.612Z,100137.06
2022-12-15T17:42:20.960Z,100137.06
2022-12-15T17:44:48.211Z,100131.48
2022-12-15T17:47:15.391Z,100134.14
2022-12-15T17:49:42.165Z,100139.00
2022-12-15T17:52:22.001Z,100134.64
2022-12-15T17:54:48.802Z,100136.11
2022-12-15T17:57:15.543Z,100143.62
2022-12-15T17:59:42.221Z,100147.45
2022-12-15T18:02:15.160Z,100151.08
2022-12-15T18:04:42.118Z,100150.40
2022-12-15T18:07:19.739Z,100150.81
2022-12-15T18:09:46.407Z,100151.75
2022-12-15T18:12:24.503Z,100148.75
2022-12-15T18:14:51.426Z,100150.08
2022-12-15T18:17:18.142Z,100153.24
2022-12-15T18:19:45.036Z,100151.80
2022-12-15T18:22:14.333Z,100156.25
2022-12-15T18:24:40.925Z,100160.19
2022-12-15T18:27:24.846Z,100169.41
2022-12-15T18:29:51.907Z,100175.28
2022-12-15T18:32:18.634Z,100182.57
